createdAt,value
2022-11-20T00:02:06.154Z,25.70
2022-11-20T00:04:34.856Z,25.03
2022-11-20T00:07:03.670Z,25.90
2022-11-20T00:09:32.452Z,26.67
2022-11-20T00:12:02.479Z,26.30
2022-11-20T00:14:31.161Z,24.40
2022-11-20T00:16:59.809Z,23.80
2022-11-20T00:19:28.801Z,24.37
2022-11-20T00:21:57.521Z,27.30
2022-11-20T00:24:26.174Z,26.30
2022-11-20T00:26:54.741Z,25.10
2022-11-20T00:29:24.777Z,23.40
2022-11-20T00:31:53.419Z,24.47
2022-11-20T00:34:22.038Z,24.47
2022-11-20T00:36:50.557Z,26.87
2022-11-20T00:39:19.446Z,24.20
2022-11-20T00:41:48.272Z,25.57
2022-11-20T00:44:16.829Z,26.07
2022-11-20T00:46:46.784Z,27.67
2022-11-20T00:49:15.374Z,25.80
2022-11-20T00:51:43.994Z,24.80
2022-11-20T00:54:12.825Z,27.50
2022-11-20T00:56:41.771Z,29.23
2022-11-20T00:59:12.016Z,28.43
2022-11-20T01:01:40.851Z,27.07
2022-11-20T01:04:10.821Z,27.27
2022-11-20T01:06:41.359Z,29.10
2022-11-20T01:09:14.553Z,25.00
2022-11-20T01:11:46.205Z,26.70
2022-11-20T01:14:17.973Z,29.37
2022-11-20T01:16:49.521Z,26.40
2022-11-20T01:19:23.090Z,28.07
2022-11-20T01:21:55.709Z,27.40
2022-11-20T01:24:25.299Z,25.70
2022-11-20T01:26:54.397Z,32.77
2022-11-20T01:29:25.621Z,31.33
2022-11-20T01:31:54.956Z,33.37
2022-11-20T01:34:26.034Z,30.20
2022-11-20T01:36:55.103Z,26.60
2022-11-20T01:39:25.825Z,27.43
2022-11-20T01:42:15.632Z,28.03
2022-11-20T01:44:57.332Z,28.40
2022-11-20T01:47:34.220Z,27.97
2022-11-20T01:50:11.920Z,26.07
2022-11-20T01:52:45.792Z,26.53
2022-11-20T01:55:21.371Z,26.20
2022-11-20T01:57:51.567Z,28.23
2022-11-20T02:00:22.761Z,28.57
2022-11-20T02:02:57.268Z,26.43
2022-11-20T02:05:35.096Z,27.93
2022-11-20T02:08:07.990Z,28.10
2022-11-20T02:10:37.960Z,25.47
2022-11-20T02:13:24.540Z,25.80
2022-11-20T02:15:54.059Z,25.50
2022-11-20T02:18:25.291Z,30.00
2022-11-20T02:21:02.119Z,29.80
2022-11-20T02:23:39.050Z,28.03
2022-11-20T02:26:15.196Z,27.17
2022-11-20T02:28:44.115Z,27.83
2022-11-20T02:31:12.629Z,29.63
2022-11-20T02:33:41.208Z,32.63
2022-11-20T02:36:18.035Z,29.53
2022-11-20T02:38:46.841Z,27.93
2022-11-20T02:41:16.903Z,30.07
2022-11-20T02:43:45.546Z,29.73
2022-11-20T02:46:14.120Z,30.53
2022-11-20T02:48:42.807Z,31.73
2022-11-20T02:51:11.538Z,28.87
2022-11-20T02:53:40.119Z,32.00
2022-11-20T02:56:09.692Z,32.00
2022-11-20T02:58:40.221Z,31.13
2022-11-20T03:01:08.882Z,32.63
2022-11-20T03:03:37.485Z,31.10
2022-11-20T03:06:06.644Z,31.87
2022-11-20T03:08:35.261Z,30.80
2022-11-20T03:11:09.147Z,33.53
2022-11-20T03:13:39.175Z,32.93
2022-11-20T03:16:14.292Z,34.13
2022-11-20T03:18:44.154Z,36.70
2022-11-20T03:21:14.918Z,31.47
2022-11-20T03:23:43.561Z,32.87
2022-11-20T03:26:16.264Z,33.83
2022-11-20T03:28:50.503Z,33.60
2022-11-20T03:31:22.902Z,31.43
2022-11-20T03:33:51.621Z,35.07
2022-11-20T03:36:22.580Z,33.43
2022-11-20T03:38:51.847Z,32.00
2022-11-20T03:41:23.682Z,33.00
2022-11-20T03:43:55.917Z,33.57
2022-11-20T03:46:25.881Z,34.60
2022-11-20T03:48:55.004Z,33.03
2022-11-20T03:51:25.961Z,35.47
2022-11-20T03:53:58.882Z,33.40
2022-11-20T03:56:30.770Z,35.90
2022-11-20T03:59:01.370Z,35.40
2022-11-20T04:01:32.893Z,36.57
2022-11-20T04:04:01.655Z,36.47
2022-11-20T04:06:35.229Z,34.80
2022-11-20T04:09:04.515Z,35.40
2022-11-20T04:11:35.968Z,34.33
2022-11-20T04:14:08.726Z,35.90
2022-11-20T04:16:38.385Z,34.97
2022-11-20T04:19:12.521Z,34.17
2022-11-20T04:21:41.072Z,37.17
2022-11-20T04:24:11.349Z,38.63
2022-11-20T04:26:41.111Z,36.43
2022-11-20T04:29:13.357Z,38.83
2022-11-20T04:31:42.294Z,40.43
2022-11-20T04:34:13.818Z,39.47
2022-11-20T04:36:43.460Z,40.97
2022-11-20T04:39:16.715Z,40.27
2022-11-20T04:41:45.595Z,41.43
2022-11-20T04:44:15.784Z,36.47
2022-11-20T04:46:45.407Z,36.93
2022-11-20T04:49:14.530Z,45.90
2022-11-20T04:51:43.132Z,49.63
2022-11-20T04:54:13.571Z,41.63
2022-11-20T04:56:42.176Z,47.67
2022-11-20T04:59:10.782Z,39.87
2022-11-20T05:01:41.238Z,43.50
2022-11-20T05:04:10.354Z,45.07
2022-11-20T05:06:38.943Z,42.60
2022-11-20T05:09:07.544Z,50.40
2022-11-20T05:11:36.061Z,76.67
2022-11-20T05:14:04.733Z,62.73
2022-11-20T05:16:33.310Z,58.30
2022-11-20T05:19:03.345Z,55.63
2022-11-20T05:21:34.010Z,55.27
2022-11-20T05:24:02.574Z,53.17
2022-11-20T05:26:31.173Z,47.53
2022-11-20T05:28:59.729Z,50.43
2022-11-20T05:31:28.590Z,47.97
2022-11-20T05:34:18.284Z,50.70
2022-11-20T05:36:46.822Z,48.63
2022-11-20T05:39:15.347Z,50.87
2022-11-20T05:41:43.902Z,44.23
2022-11-20T05:44:13.237Z,45.87
2022-11-20T05:46:41.779Z,44.50
2022-11-20T05:49:10.481Z,42.67
2022-11-20T05:51:40.466Z,46.13
2022-11-20T05:54:08.974Z,46.00
2022-11-20T05:56:37.796Z,43.77
2022-11-20T05:59:06.575Z,41.60
2022-11-20T06:01:36.949Z,41.43
2022-11-20T06:04:05.896Z,42.23
2022-11-20T06:06:34.455Z,41.93
2022-11-20T06:09:04.448Z,40.60
2022-11-20T06:11:33.075Z,41.40
2022-11-20T06:14:01.603Z,42.73
2022-11-20T06:16:30.174Z,43.23
2022-11-20T06:18:58.745Z,39.67
2022-11-20T06:21:27.313Z,39.67
2022-11-20T06:23:56.137Z,43.23
2022-11-20T06:26:28.379Z,48.63
2022-11-20T06:28:57.917Z,52.03
2022-11-20T06:31:29.306Z,46.53
2022-11-20T06:33:57.862Z,40.97
2022-11-20T06:36:26.452Z,41.67
2022-11-20T06:38:55.581Z,41.00
2022-11-20T06:41:26.342Z,42.37
2022-11-20T06:43:54.999Z,41.27
2022-11-20T06:46:23.971Z,40.37
2022-11-20T06:48:52.903Z,41.57
2022-11-20T06:51:22.427Z,41.93
2022-11-20T06:53:51.659Z,43.43
2022-11-20T06:56:20.270Z,45.33
2022-11-20T06:58:50.289Z,44.27
2022-11-20T07:01:18.951Z,45.80
2022-11-20T07:03:54.282Z,46.80
2022-11-20T07:06:23.201Z,43.80
2022-11-20T07:08:53.823Z,42.07
2022-11-20T07:11:22.504Z,44.00
2022-11-20T07:13:52.459Z,42.73
2022-11-20T07:16:21.036Z,41.17
2022-11-20T07:18:51.089Z,42.37
2022-11-20T07:21:19.996Z,45.80
2022-11-20T07:23:49.239Z,42.30
2022-11-20T07:26:17.864Z,40.40
2022-11-20T07:28:47.742Z,42.90
2022-11-20T07:31:19.699Z,42.03
2022-11-20T07:33:48.737Z,48.83
2022-11-20T07:36:17.576Z,46.97
2022-11-20T07:38:46.147Z,47.20
2022-11-20T07:41:14.646Z,46.60
2022-11-20T07:43:43.246Z,44.27
2022-11-20T07:46:11.935Z,40.27
2022-11-20T07:48:42.018Z,40.87
2022-11-20T07:51:10.741Z,45.37
2022-11-20T07:53:39.250Z,41.67
2022-11-20T07:56:08.587Z,44.37
2022-11-20T07:58:37.196Z,44.10
2022-11-20T08:01:07.648Z,48.67
2022-11-20T08:03:38.726Z,47.30
2022-11-20T08:06:10.341Z,44.17
2022-11-20T08:08:42.932Z,43.83
2022-11-20T08:11:29.270Z,45.13
2022-11-20T08:14:16.802Z,45.47
2022-11-20T08:16:47.777Z,43.63
2022-11-20T08:19:18.336Z,45.53
2022-11-20T08:21:48.368Z,43.77
2022-11-20T08:24:16.954Z,45.80
2022-11-20T08:26:45.530Z,41.10
2022-11-20T08:29:14.230Z,46.37
2022-11-20T08:31:42.832Z,39.57
2022-11-20T08:34:16.223Z,38.63
2022-11-20T08:36:48.718Z,36.97
2022-11-20T08:39:17.399Z,39.30
2022-11-20T08:41:46.022Z,41.63
2022-11-20T08:44:14.746Z,36.60
2022-11-20T08:46:44.970Z,40.17
2022-11-20T08:49:15.917Z,42.63
2022-11-20T08:51:44.769Z,39.23
2022-11-20T08:54:14.959Z,49.80
2022-11-20T08:56:43.541Z,55.13
2022-11-20T08:59:36.718Z,57.70
2022-11-20T09:02:00.793Z,58.77
2022-11-20T09:04:29.456Z,52.00
2022-11-20T09:06:58.167Z,54.97
2022-11-20T09:09:28.212Z,57.80
2022-11-20T09:11:56.854Z,55.97
2022-11-20T09:14:30.093Z,54.10
2022-11-20T09:17:00.115Z,55.53
2022-11-20T09:19:35.399Z,51.40
2022-11-20T09:22:04.567Z,53.60
2022-11-20T09:24:34.550Z,47.90
2022-11-20T09:27:06.426Z,42.80
2022-11-20T09:29:34.952Z,43.10
2022-11-20T09:32:03.774Z,41.70
2022-11-20T09:34:32.367Z,38.87
2022-11-20T09:37:03.140Z,43.53
2022-11-20T09:39:40.021Z,44.20
2022-11-20T09:42:34.220Z,45.90
2022-11-20T09:45:25.840Z,44.60
2022-11-20T09:48:33.254Z,43.63
2022-11-20T09:51:18.520Z,42.03
2022-11-20T09:54:08.224Z,40.03
2022-11-20T09:56:43.362Z,40.90
2022-11-20T09:59:31.473Z,40.97
2022-11-20T10:02:02.938Z,41.17
2022-11-20T10:04:39.630Z,40.83
2022-11-20T10:07:35.271Z,43.73
2022-11-20T10:10:03.994Z,41.67
2022-11-20T10:12:56.869Z,43.47
2022-11-20T10:15:36.337Z,44.03
2022-11-20T10:18:23.061Z,49.23
2022-11-20T10:21:06.300Z,44.40
2022-11-20T10:23:59.104Z,49.27
2022-11-20T10:26:45.278Z,44.60
2022-11-20T10:29:19.224Z,45.90
2022-11-20T10:31:56.613Z,45.43
2022-11-20T10:34:32.769Z,53.73
2022-11-20T10:37:08.033Z,60.30
2022-11-20T10:39:46.031Z,52.67
2022-11-20T10:42:22.106Z,44.67
2022-11-20T10:45:06.870Z,38.87
2022-11-20T10:47:38.500Z,45.37
2022-11-20T10:50:22.267Z,41.93
2022-11-20T10:53:04.078Z,44.00
2022-11-20T10:55:46.295Z,45.10
2022-11-20T10:58:27.533Z,40.03
2022-11-20T11:01:07.725Z,35.07
2022-11-20T11:03:36.929Z,33.80
2022-11-20T11:06:17.655Z,34.03
2022-11-20T11:08:52.021Z,31.93
2022-11-20T11:11:26.028Z,32.60
2022-11-20T11:13:54.818Z,33.00
2022-11-20T11:16:27.694Z,30.77
2022-11-20T11:19:07.960Z,34.17
2022-11-20T11:21:37.850Z,31.43
2022-11-20T11:24:34.620Z,35.13
2022-11-20T11:27:00.991Z,35.50
2022-11-20T11:29:31.718Z,31.47
2022-11-20T11:32:13.799Z,31.07
2022-11-20T11:34:42.980Z,32.13
2022-11-20T11:37:22.573Z,33.20
2022-11-20T11:40:03.886Z,31.13
2022-11-20T11:42:45.795Z,31.97
2022-11-20T11:45:18.479Z,30.88
2022-11-20T11:47:50.847Z,33.60
2022-11-20T11:50:23.301Z,31.67
2022-11-20T11:53:14.355Z,41.77
2022-11-20T11:55:48.470Z,40.90
2022-11-20T11:58:34.511Z,48.83
2022-11-20T12:01:15.943Z,87.50
2022-11-20T12:03:57.991Z,52.10
2022-11-20T12:06:30.895Z,44.73
2022-11-20T12:09:05.362Z,43.73
2022-11-20T12:11:42.238Z,38.87
2022-11-20T12:14:20.784Z,41.53
2022-11-20T12:16:49.814Z,43.08
2022-11-20T12:19:19.912Z,41.97
2022-11-20T12:22:05.144Z,41.77
2022-11-20T12:24:47.984Z,42.80
2022-11-20T12:28:05.582Z,42.50
2022-11-20T12:30:44.004Z,51.30
2022-11-20T12:34:02.970Z,46.45
2022-11-20T12:36:43.275Z,43.83
2022-11-20T12:39:44.001Z,44.90
2022-11-20T12:43:20.136Z,45.17
2022-11-20T12:46:09.471Z,45.57
2022-11-20T12:49:12.388Z,43.25
2022-11-20T12:52:15.844Z,38.88
2022-11-20T12:55:16.096Z,43.97
2022-11-20T12:57:56.094Z,50.27
2022-11-20T13:00:26.845Z,60.90
2022-11-20T13:03:34.257Z,50.60
2022-11-20T13:06:15.802Z,44.00
2022-11-20T13:08:54.599Z,44.30
2022-11-20T13:11:34.768Z,42.83
2022-11-20T13:14:28.938Z,47.03
2022-11-20T13:17:07.009Z,39.43
2022-11-20T13:19:36.425Z,38.40
2022-11-20T13:22:05.058Z,38.60
2022-11-20T13:24:35.540Z,40.43
2022-11-20T13:27:22.093Z,39.57
2022-11-20T13:30:14.097Z,42.40
2022-11-20T13:32:52.895Z,40.65
2022-11-20T13:35:32.802Z,40.10
2022-11-20T13:38:11.107Z,37.63
2022-11-20T13:40:54.417Z,39.30
2022-11-20T13:43:37.022Z,37.67
2022-11-20T13:46:08.463Z,49.13
2022-11-20T13:48:42.695Z,46.13
2022-11-20T13:51:32.345Z,40.13
2022-11-20T13:54:36.171Z,37.23
2022-11-20T13:57:29.377Z,39.23
2022-11-20T14:00:07.690Z,44.33
2022-11-20T14:02:36.740Z,36.97
2022-11-20T14:05:07.941Z,34.47
2022-11-20T14:07:44.485Z,36.10
2022-11-20T14:10:29.944Z,36.27
2022-11-20T14:13:13.051Z,36.07
2022-11-20T14:15:45.233Z,40.15
2022-11-20T14:18:17.706Z,42.05
2022-11-20T14:20:46.829Z,39.63
2022-11-20T14:23:29.467Z,39.13
2022-11-20T14:25:59.318Z,37.15
2022-11-20T14:28:32.279Z,68.22
2022-11-20T14:31:01.106Z,64.20
2022-11-20T14:33:30.906Z,60.00
2022-11-20T14:36:00.786Z,54.97
2022-11-20T14:38:31.555Z,50.75
2022-11-20T14:41:09.712Z,58.55
2022-11-20T14:43:40.229Z,52.50
2022-11-20T14:46:12.152Z,42.37
2022-11-20T14:48:46.678Z,41.73
2022-11-20T14:51:30.734Z,37.33
2022-11-20T14:54:10.618Z,38.30
2022-11-20T14:56:39.583Z,38.77
2022-11-20T14:59:10.757Z,40.40
2022-11-20T15:01:39.764Z,40.58
2022-11-20T15:04:12.682Z,40.65
2022-11-20T15:06:53.070Z,39.95
2022-11-20T15:09:23.817Z,39.87
2022-11-20T15:12:00.411Z,40.17
2022-11-20T15:14:33.584Z,37.53
2022-11-20T15:17:02.662Z,45.33
2022-11-20T15:19:31.654Z,47.03
2022-11-20T15:22:00.283Z,42.30
2022-11-20T15:24:28.926Z,45.23
2022-11-20T15:26:57.636Z,42.23
2022-11-20T15:29:26.831Z,37.80
2022-11-20T15:31:57.573Z,39.63
2022-11-20T15:34:26.364Z,36.73
2022-11-20T15:36:55.477Z,37.33
2022-11-20T15:39:24.223Z,34.60
2022-11-20T15:41:52.849Z,41.63
2022-11-20T15:44:21.749Z,88.77
2022-11-20T15:46:50.515Z,64.23
2022-11-20T15:49:22.750Z,42.83
2022-11-20T15:51:53.733Z,38.73
2022-11-20T15:54:24.777Z,37.97
2022-11-20T15:56:54.399Z,37.80
2022-11-20T15:59:23.178Z,36.03
2022-11-20T16:01:52.127Z,35.93
2022-11-20T16:04:22.637Z,36.90
2022-11-20T16:06:51.349Z,39.27
2022-11-20T16:09:19.922Z,35.40
2022-11-20T16:11:48.477Z,50.37
2022-11-20T16:14:34.703Z,78.43
2022-11-20T16:17:03.251Z,58.10
2022-11-20T16:19:33.341Z,48.37
2022-11-20T16:22:03.349Z,43.50
2022-11-20T16:24:32.537Z,43.80
2022-11-20T16:27:01.067Z,38.47
2022-11-20T16:29:29.665Z,46.03
2022-11-20T16:31:59.540Z,43.47
2022-11-20T16:34:28.449Z,41.03
2022-11-20T16:36:58.704Z,43.93
2022-11-20T16:39:28.034Z,37.77
2022-11-20T16:41:56.613Z,35.37
2022-11-20T16:44:25.745Z,36.63
2022-11-20T16:46:54.712Z,38.17
2022-11-20T16:49:23.534Z,37.77
2022-11-20T16:51:52.173Z,41.90
2022-11-20T16:54:22.436Z,36.93
2022-11-20T16:56:53.519Z,39.50
2022-11-20T16:59:22.121Z,37.33
2022-11-20T17:01:50.933Z,36.27
2022-11-20T17:04:19.733Z,34.10
2022-11-20T17:06:48.315Z,37.70
2022-11-20T17:09:16.898Z,35.77
2022-11-20T17:11:46.876Z,32.20
2022-11-20T17:14:15.497Z,31.93
2022-11-20T17:16:44.166Z,34.23
2022-11-20T17:19:13.672Z,34.60
2022-11-20T17:21:42.755Z,35.53
2022-11-20T17:24:15.979Z,38.10
2022-11-20T17:26:47.317Z,37.80
2022-11-20T17:29:18.358Z,32.70
2022-11-20T17:31:48.831Z,34.70
2022-11-20T17:34:18.258Z,37.27
2022-11-20T17:36:47.237Z,36.47
2022-11-20T17:39:17.879Z,37.77
2022-11-20T17:42:08.723Z,39.20
2022-11-20T17:44:37.466Z,34.93
2022-11-20T17:47:06.364Z,38.07
2022-11-20T17:49:36.605Z,38.20
2022-11-20T17:52:05.888Z,34.53
2022-11-20T17:54:34.554Z,38.40
2022-11-20T17:57:21.644Z,39.23
2022-11-20T17:59:50.256Z,34.17
2022-11-20T18:02:18.774Z,38.67
2022-11-20T18:04:47.419Z,39.10
2022-11-20T18:07:16.085Z,37.70
2022-11-20T18:09:44.763Z,35.57
2022-11-20T18:12:14.780Z,39.73
2022-11-20T18:14:43.742Z,37.37
2022-11-20T18:17:17.019Z,39.03
2022-11-20T18:20:07.066Z,38.40
2022-11-20T18:22:36.585Z,37.50
2022-11-20T18:25:05.625Z,36.87
2022-11-20T18:27:35.660Z,37.40
2022-11-20T18:30:04.331Z,40.20
2022-11-20T18:32:33.233Z,41.23
2022-11-20T18:35:01.938Z,38.27
2022-11-20T18:37:32.191Z,38.77
2022-11-20T18:40:00.943Z,39.87
2022-11-20T18:42:46.781Z,37.87
2022-11-20T18:45:16.888Z,43.13
2022-11-20T18:47:45.462Z,40.37
2022-11-20T18:50:14.152Z,41.13
2022-11-20T18:52:46.939Z,43.73
2022-11-20T18:55:15.880Z,39.63
2022-11-20T18:57:44.738Z,41.93
2022-11-20T19:00:16.321Z,37.50
2022-11-20T19:02:45.059Z,40.77
2022-11-20T19:05:15.544Z,41.87
2022-11-20T19:07:44.985Z,40.73
2022-11-20T19:10:13.778Z,40.70
2022-11-20T19:12:42.585Z,40.10
2022-11-20T19:15:12.308Z,44.37
2022-11-20T19:17:42.373Z,42.53
2022-11-20T19:20:12.109Z,41.50
2022-11-20T19:22:40.731Z,41.80
2022-11-20T19:25:10.456Z,39.17
2022-11-20T19:27:39.201Z,40.20
2022-11-20T19:30:10.039Z,37.67
2022-11-20T19:32:39.169Z,39.70
2022-11-20T19:35:12.750Z,41.00
2022-11-20T19:37:41.368Z,37.30
2022-11-20T19:40:10.947Z,39.23
2022-11-20T19:42:39.785Z,38.17
2022-11-20T19:45:10.493Z,38.90
2022-11-20T19:48:06.857Z,40.40
2022-11-20T19:50:29.736Z,40.77
2022-11-20T19:52:58.962Z,43.63
2022-11-20T19:55:27.847Z,41.60
2022-11-20T19:57:56.547Z,39.90
2022-11-20T20:00:31.223Z,39.70
2022-11-20T20:03:01.469Z,42.20
2022-11-20T20:05:31.804Z,37.83
2022-11-20T20:08:00.399Z,38.53
2022-11-20T20:10:29.560Z,37.43
2022-11-20T20:12:58.464Z,40.40
2022-11-20T20:15:27.279Z,40.27
2022-11-20T20:17:56.430Z,39.73
2022-11-20T20:20:26.274Z,40.23
2022-11-20T20:22:56.268Z,36.30
2022-11-20T20:25:24.887Z,37.67
2022-11-20T20:27:53.499Z,39.80
2022-11-20T20:30:22.162Z,38.93
2022-11-20T20:32:55.918Z,37.53
2022-11-20T20:35:25.020Z,35.10
2022-11-20T20:37:55.152Z,39.80
2022-11-20T20:40:24.028Z,41.93
2022-11-20T20:42:52.597Z,37.00
2022-11-20T20:45:21.252Z,36.83
2022-11-20T20:47:49.965Z,35.63
2022-11-20T20:50:18.900Z,38.13
2022-11-20T20:52:47.456Z,35.87
2022-11-20T20:55:17.564Z,37.47
2022-11-20T20:57:46.570Z,37.70
2022-11-20T21:00:16.463Z,36.50
2022-11-20T21:02:45.197Z,42.87
2022-11-20T21:05:13.921Z,41.20
2022-11-20T21:07:56.318Z,42.00
2022-11-20T21:10:26.345Z,39.50
2022-11-20T21:12:57.796Z,42.03
2022-11-20T21:15:26.677Z,39.73
2022-11-20T21:17:55.476Z,38.27
2022-11-20T21:20:41.360Z,38.40
2022-11-20T21:23:11.472Z,39.23
2022-11-20T21:25:42.423Z,41.23
2022-11-20T21:28:16.841Z,39.43
2022-11-20T21:30:46.788Z,42.13
2022-11-20T21:33:16.073Z,44.67
2022-11-20T21:35:44.626Z,41.03
2022-11-20T21:38:13.200Z,41.53
2022-11-20T21:40:43.075Z,44.27
2022-11-20T21:43:11.652Z,38.17
2022-11-20T21:45:40.256Z,40.00
2022-11-20T21:48:08.976Z,44.83
2022-11-20T21:50:37.619Z,44.53
2022-11-20T21:53:09.594Z,47.10
2022-11-20T21:55:38.204Z,52.93
2022-11-20T21:58:08.270Z,47.30
2022-11-20T22:00:36.813Z,51.37
2022-11-20T22:03:05.659Z,40.00
2022-11-20T22:05:34.173Z,42.90
2022-11-20T22:08:03.343Z,42.20
2022-11-20T22:10:31.958Z,42.03
2022-11-20T22:13:14.301Z,44.93
2022-11-20T22:15:59.928Z,45.90
2022-11-20T22:18:29.151Z,46.97
2022-11-20T22:20:58.055Z,46.87
2022-11-20T22:23:26.689Z,48.53
2022-11-20T22:25:55.327Z,48.70
2022-11-20T22:28:23.933Z,46.57
2022-11-20T22:30:53.897Z,50.10
2022-11-20T22:33:22.517Z,48.47
2022-11-20T22:35:51.151Z,50.30
2022-11-20T22:38:19.781Z,52.47
2022-11-20T22:40:48.685Z,50.97
2022-11-20T22:43:17.250Z,51.87
2022-11-20T22:45:46.558Z,55.03
2022-11-20T22:48:16.510Z,58.93
2022-11-20T22:50:45.272Z,54.67
2022-11-20T22:53:13.811Z,56.60
2022-11-20T22:55:42.345Z,55.47
2022-11-20T22:58:10.985Z,55.07
2022-11-20T23:00:39.506Z,56.23
2022-11-20T23:03:08.098Z,59.13
2022-11-20T23:05:38.027Z,54.53
2022-11-20T23:08:07.075Z,55.07
2022-11-20T23:10:35.742Z,53.27
2022-11-20T23:13:04.370Z,57.47
2022-11-20T23:15:35.706Z,53.73
2022-11-20T23:18:04.202Z,54.87
2022-11-20T23:20:32.743Z,55.57
2022-11-20T23:23:02.714Z,52.90
2022-11-20T23:25:31.576Z,54.17
2022-11-20T23:28:00.105Z,54.73
2022-11-20T23:30:28.633Z,53.60
2022-11-20T23:32:57.191Z,55.13
2022-11-20T23:35:25.819Z,61.37
2022-11-20T23:37:54.394Z,57.07
2022-11-20T23:40:24.348Z,56.27
2022-11-20T23:43:10.279Z,55.63
2022-11-20T23:45:40.693Z,58.03
2022-11-20T23:48:09.498Z,52.37
2022-11-20T23:50:38.105Z,57.07
2022-11-20T23:53:06.898Z,56.70
2022-11-20T23:55:37.238Z,53.50
2022-11-20T23:58:06.512Z,52.13
